sensor_id;sensor_type;location;lat;lon;timestamp;P1;durP1;ratioP1;P2;durP2;ratioP2
35602;SDS011;21725;50.836;4.368;2022-08-01T00:01:42;5.63;;;2.33;;
35602;SDS011;21725;50.836;4.368;2022-08-01T00:04:08;4.97;;;2.25;;
35602;SDS011;21725;50.836;4.368;2022-08-01T00:09:43;4.05;;;1.95;;
35602;SDS011;21725;50.836;4.368;2022-08-01T00:12:09;6.78;;;2.38;;
35602;SDS011;21725;50.836;4.368;2022-08-01T00:14:35;4.05;;;2.03;;
35602;SDS011;21725;50.836;4.368;2022-08-01T00:17:04;6.43;;;2.35;;
35602;SDS011;21725;50.836;4.368;2022-08-01T00:20:00;6.35;;;3.03;;
35602;SDS011;21725;50.836;4.368;2022-08-01T00:22:34;7.45;;;3.20;;
35602;SDS011;21725;50.836;4.368;2022-08-01T00:25:03;5.95;;;2.88;;
35602;SDS011;21725;50.836;4.368;2022-08-01T00:27:30;7.45;;;3.13;;
35602;SDS011;21725;50.836;4.368;2022-08-01T00:30:06;8.85;;;3.58;;
35602;SDS011;21725;50.836;4.368;2022-08-01T00:32:39;6.38;;;3.33;;
35602;SDS011;21725;50.836;4.368;2022-08-01T00:38:25;9.10;;;4.70;;
35602;SDS011;21725;50.836;4.368;2022-08-01T00:43:58;9.25;;;3.35;;
35602;SDS011;21725;50.836;4.368;2022-08-01T00:47:07;8.95;;;3.42;;
35602;SDS011;21725;50.836;4.368;2022-08-01T00:49:42;8.60;;;3.65;;
35602;SDS011;21725;50.836;4.368;2022-08-01T00:52:19;8.75;;;3.60;;
35602;SDS011;21725;50.836;4.368;2022-08-01T00:55:08;9.05;;;3.35;;
35602;SDS011;21725;50.836;4.368;2022-08-01T00:57:42;10.38;;;4.00;;
35602;SDS011;21725;50.836;4.368;2022-08-01T01:00:08;6.07;;;3.55;;
35602;SDS011;21725;50.836;4.368;2022-08-01T01:02:46;6.43;;;2.97;;
35602;SDS011;21725;50.836;4.368;2022-08-01T01:05:28;7.13;;;2.90;;
35602;SDS011;21725;50.836;4.368;2022-08-01T01:07:58;7.47;;;3.10;;
35602;SDS011;21725;50.836;4.368;2022-08-01T01:14:40;9.73;;;3.20;;
35602;SDS011;21725;50.836;4.368;2022-08-01T01:17:35;5.28;;;2.90;;
35602;SDS011;21725;50.836;4.368;2022-08-01T01:20:21;8.40;;;3.50;;
35602;SDS011;21725;50.836;4.368;2022-08-01T01:25:46;6.43;;;3.28;;
35602;SDS011;21725;50.836;4.368;2022-08-01T01:31:10;8.65;;;4.85;;
35602;SDS011;21725;50.836;4.368;2022-08-01T01:33:48;12.05;;;6.00;;
35602;SDS011;21725;50.836;4.368;2022-08-01T01:36:25;13.00;;;6.38;;
35602;SDS011;21725;50.836;4.368;2022-08-01T01:38:58;14.07;;;6.68;;
35602;SDS011;21725;50.836;4.368;2022-08-01T01:41:27;9.88;;;6.85;;
35602;SDS011;21725;50.836;4.368;2022-08-01T01:43:55;15.23;;;8.50;;
35602;SDS011;21725;50.836;4.368;2022-08-01T01:46:29;13.35;;;7.05;;
35602;SDS011;21725;50.836;4.368;2022-08-01T01:48:58;15.73;;;6.97;;
35602;SDS011;21725;50.836;4.368;2022-08-01T01:51:39;16.63;;;7.95;;
35602;SDS011;21725;50.836;4.368;2022-08-01T01:54:07;13.38;;;7.25;;
35602;SDS011;21725;50.836;4.368;2022-08-01T01:56:41;15.77;;;7.53;;
35602;SDS011;21725;50.836;4.368;2022-08-01T01:59:36;11.43;;;6.72;;
35602;SDS011;21725;50.836;4.368;2022-08-01T02:02:06;14.40;;;6.72;;
35602;SDS011;21725;50.836;4.368;2022-08-01T02:04:42;11.20;;;6.25;;
35602;SDS011;21725;50.836;4.368;2022-08-01T02:07:19;13.70;;;7.22;;
35602;SDS011;21725;50.836;4.368;2022-08-01T02:09:55;14.35;;;7.63;;
35602;SDS011;21725;50.836;4.368;2022-08-01T02:12:35;14.80;;;8.68;;
35602;SDS011;21725;50.836;4.368;2022-08-01T02:15:17;16.77;;;7.72;;
35602;SDS011;21725;50.836;4.368;2022-08-01T02:17:57;15.43;;;8.48;;
35602;SDS011;21725;50.836;4.368;2022-08-01T02:20:29;12.43;;;8.15;;
35602;SDS011;21725;50.836;4.368;2022-08-01T02:23:11;18.20;;;8.68;;
35602;SDS011;21725;50.836;4.368;2022-08-01T02:28:33;13.45;;;6.68;;
35602;SDS011;21725;50.836;4.368;2022-08-01T02:31:24;18.58;;;8.88;;
35602;SDS011;21725;50.836;4.368;2022-08-01T02:34:10;19.55;;;9.15;;
35602;SDS011;21725;50.836;4.368;2022-08-01T02:36:41;13.60;;;8.98;;
35602;SDS011;21725;50.836;4.368;2022-08-01T02:39:11;17.40;;;9.00;;
35602;SDS011;21725;50.836;4.368;2022-08-01T02:41:43;17.48;;;9.32;;
35602;SDS011;21725;50.836;4.368;2022-08-01T02:44:31;16.17;;;7.40;;
35602;SDS011;21725;50.836;4.368;2022-08-01T02:47:07;18.55;;;8.90;;
35602;SDS011;21725;50.836;4.368;2022-08-01T02:49:37;19.08;;;10.05;;
35602;SDS011;21725;50.836;4.368;2022-08-01T02:52:10;19.50;;;10.13;;
35602;SDS011;21725;50.836;4.368;2022-08-01T02:54:47;24.65;;;10.82;;
35602;SDS011;21725;50.836;4.368;2022-08-01T02:57:16;19.23;;;9.52;;
35602;SDS011;21725;50.836;4.368;2022-08-01T02:59:46;19.33;;;8.57;;
35602;SDS011;21725;50.836;4.368;2022-08-01T03:02:14;19.38;;;8.70;;
35602;SDS011;21725;50.836;4.368;2022-08-01T03:04:44;17.15;;;9.38;;
35602;SDS011;21725;50.836;4.368;2022-08-01T03:07:23;16.73;;;8.57;;
35602;SDS011;21725;50.836;4.368;2022-08-01T03:09:56;14.85;;;7.88;;
35602;SDS011;21725;50.836;4.368;2022-08-01T03:12:43;17.30;;;9.15;;
35602;SDS011;21725;50.836;4.368;2022-08-01T03:15:24;15.45;;;7.43;;
35602;SDS011;21725;50.836;4.368;2022-08-01T03:17:55;19.40;;;7.70;;
35602;SDS011;21725;50.836;4.368;2022-08-01T03:20:30;18.20;;;9.32;;
35602;SDS011;21725;50.836;4.368;2022-08-01T03:23:07;16.63;;;8.23;;
35602;SDS011;21725;50.836;4.368;2022-08-01T03:25:38;17.73;;;9.32;;
35602;SDS011;21725;50.836;4.368;2022-08-01T03:28:06;17.75;;;9.07;;
35602;SDS011;21725;50.836;4.368;2022-08-01T03:30:40;16.65;;;8.80;;
35602;SDS011;21725;50.836;4.368;2022-08-01T03:33:09;17.65;;;10.18;;
35602;SDS011;21725;50.836;4.368;2022-08-01T03:35:46;15.48;;;10.15;;
35602;SDS011;21725;50.836;4.368;2022-08-01T03:38:21;16.45;;;10.63;;
35602;SDS011;21725;50.836;4.368;2022-08-01T03:40:53;22.75;;;11.10;;
35602;SDS011;21725;50.836;4.368;2022-08-01T03:43:40;18.48;;;10.70;;
35602;SDS011;21725;50.836;4.368;2022-08-01T03:46:11;24.73;;;13.10;;
35602;SDS011;21725;50.836;4.368;2022-08-01T03:49:14;20.90;;;11.48;;
35602;SDS011;21725;50.836;4.368;2022-08-01T03:51:49;19.65;;;12.57;;
35602;SDS011;21725;50.836;4.368;2022-08-01T03:54:40;20.65;;;11.82;;
35602;SDS011;21725;50.836;4.368;2022-08-01T03:57:21;21.50;;;12.38;;
35602;SDS011;21725;50.836;4.368;2022-08-01T03:59:51;20.13;;;11.57;;
35602;SDS011;21725;50.836;4.368;2022-08-01T04:02:17;19.58;;;11.00;;
35602;SDS011;21725;50.836;4.368;2022-08-01T04:05:02;18.65;;;10.90;;
35602;SDS011;21725;50.836;4.368;2022-08-01T04:39:44;15.73;;;12.13;;
35602;SDS011;21725;50.836;4.368;2022-08-01T04:42:11;18.13;;;12.10;;
35602;SDS011;21725;50.836;4.368;2022-08-01T04:44:40;16.48;;;11.57;;
35602;SDS011;21725;50.836;4.368;2022-08-01T04:47:06;18.42;;;12.48;;
35602;SDS011;21725;50.836;4.368;2022-08-01T04:49:34;18.38;;;12.43;;
35602;SDS011;21725;50.836;4.368;2022-08-01T04:52:01;22.83;;;15.05;;
35602;SDS011;21725;50.836;4.368;2022-08-01T04:57:15;15.25;;;10.93;;
35602;SDS011;21725;50.836;4.368;2022-08-01T04:59:46;16.77;;;10.48;;
35602;SDS011;21725;50.836;4.368;2022-08-01T05:02:24;15.38;;;10.60;;
35602;SDS011;21725;50.836;4.368;2022-08-01T05:08:16;19.88;;;12.38;;
35602;SDS011;21725;50.836;4.368;2022-08-01T05:10:57;18.00;;;12.88;;
35602;SDS011;21725;50.836;4.368;2022-08-01T05:13:34;18.05;;;11.27;;
35602;SDS011;21725;50.836;4.368;2022-08-01T05:18:56;15.55;;;11.50;;
35602;SDS011;21725;50.836;4.368;2022-08-01T05:21:22;22.88;;;13.05;;
35602;SDS011;21725;50.836;4.368;2022-08-01T05:23:48;21.40;;;11.55;;
35602;SDS011;21725;50.836;4.368;2022-08-01T05:26:14;20.98;;;11.75;;
35602;SDS011;21725;50.836;4.368;2022-08-01T05:28:39;14.45;;;10.43;;
35602;SDS011;21725;50.836;4.368;2022-08-01T05:31:05;16.52;;;10.57;;
35602;SDS011;21725;50.836;4.368;2022-08-01T05:33:31;15.32;;;10.13;;
35602;SDS011;21725;50.836;4.368;2022-08-01T05:36:03;12.50;;;9.88;;
35602;SDS011;21725;50.836;4.368;2022-08-01T05:42:05;13.27;;;10.70;;
35602;SDS011;21725;50.836;4.368;2022-08-01T05:44:31;14.80;;;9.73;;
35602;SDS011;21725;50.836;4.368;2022-08-01T05:46:57;8.93;;;7.63;;
35602;SDS011;21725;50.836;4.368;2022-08-01T05:52:20;10.32;;;8.70;;
35602;SDS011;21725;50.836;4.368;2022-08-01T05:54:46;13.00;;;8.68;;
35602;SDS011;21725;50.836;4.368;2022-08-01T05:57:23;9.82;;;7.28;;
35602;SDS011;21725;50.836;4.368;2022-08-01T06:00:03;12.27;;;8.93;;
35602;SDS011;21725;50.836;4.368;2022-08-01T06:05:34;11.48;;;7.70;;
35602;SDS011;21725;50.836;4.368;2022-08-01T06:10:55;12.07;;;7.50;;
35602;SDS011;21725;50.836;4.368;2022-08-01T06:16:31;10.82;;;7.38;;
35602;SDS011;21725;50.836;4.368;2022-08-01T06:19:00;11.23;;;6.55;;
35602;SDS011;21725;50.836;4.368;2022-08-01T06:21:28;10.55;;;6.75;;
35602;SDS011;21725;50.836;4.368;2022-08-01T06:23:54;13.98;;;7.72;;
35602;SDS011;21725;50.836;4.368;2022-08-01T06:26:19;10.23;;;7.10;;
35602;SDS011;21725;50.836;4.368;2022-08-01T06:28:45;11.98;;;7.00;;
35602;SDS011;21725;50.836;4.368;2022-08-01T06:31:11;14.80;;;7.40;;
35602;SDS011;21725;50.836;4.368;2022-08-01T06:36:26;9.68;;;6.57;;
35602;SDS011;21725;50.836;4.368;2022-08-01T06:38:55;11.93;;;7.05;;
35602;SDS011;21725;50.836;4.368;2022-08-01T06:41:21;9.38;;;6.18;;
35602;SDS011;21725;50.836;4.368;2022-08-01T06:43:46;9.90;;;6.85;;
35602;SDS011;21725;50.836;4.368;2022-08-01T06:46:12;10.63;;;6.30;;
35602;SDS011;21725;50.836;4.368;2022-08-01T06:48:38;7.55;;;5.75;;
35602;SDS011;21725;50.836;4.368;2022-08-01T06:54:04;9.23;;;4.53;;
35602;SDS011;21725;50.836;4.368;2022-08-01T06:56:31;6.30;;;4.03;;
35602;SDS011;21725;50.836;4.368;2022-08-01T06:59:18;11.82;;;4.88;;
35602;SDS011;21725;50.836;4.368;2022-08-01T07:08:03;7.63;;;5.03;;
35602;SDS011;21725;50.836;4.368;2022-08-01T07:10:33;6.78;;;4.35;;
35602;SDS011;21725;50.836;4.368;2022-08-01T07:16:02;10.07;;;5.97;;
35602;SDS011;21725;50.836;4.368;2022-08-01T07:21:15;8.27;;;5.15;;
35602;SDS011;21725;50.836;4.368;2022-08-01T07:23:40;7.43;;;5.00;;
35602;SDS011;21725;50.836;4.368;2022-08-01T07:26:06;12.35;;;5.53;;
35602;SDS011;21725;50.836;4.368;2022-08-01T07:28:32;7.75;;;4.35;;
35602;SDS011;21725;50.836;4.368;2022-08-01T07:30:57;5.10;;;3.53;;
35602;SDS011;21725;50.836;4.368;2022-08-01T07:33:23;12.20;;;5.20;;
35602;SDS011;21725;50.836;4.368;2022-08-01T07:35:49;8.27;;;4.80;;
35602;SDS011;21725;50.836;4.368;2022-08-01T07:38:14;7.78;;;5.10;;
35602;SDS011;21725;50.836;4.368;2022-08-01T07:40:42;7.88;;;5.07;;
35602;SDS011;21725;50.836;4.368;2022-08-01T07:43:08;9.00;;;4.18;;
35602;SDS011;21725;50.836;4.368;2022-08-01T07:45:34;8.52;;;5.38;;
35602;SDS011;21725;50.836;4.368;2022-08-01T07:48:03;8.57;;;4.20;;
35602;SDS011;21725;50.836;4.368;2022-08-01T07:50:30;7.82;;;4.93;;
35602;SDS011;21725;50.836;4.368;2022-08-01T07:52:55;6.43;;;4.57;;
35602;SDS011;21725;50.836;4.368;2022-08-01T07:55:21;8.52;;;5.70;;
35602;SDS011;21725;50.836;4.368;2022-08-01T07:57:47;7.53;;;5.57;;
35602;SDS011;21725;50.836;4.368;2022-08-01T08:00:12;6.57;;;4.82;;
35602;SDS011;21725;50.836;4.368;2022-08-01T08:02:38;6.63;;;4.50;;
35602;SDS011;21725;50.836;4.368;2022-08-01T08:05:04;5.93;;;4.15;;
35602;SDS011;21725;50.836;4.368;2022-08-01T08:07:31;6.35;;;4.43;;
35602;SDS011;21725;50.836;4.368;2022-08-01T08:09:57;6.53;;;3.72;;
35602;SDS011;21725;50.836;4.368;2022-08-01T08:12:23;7.72;;;4.15;;
35602;SDS011;21725;50.836;4.368;2022-08-01T08:14:48;6.00;;;3.90;;
35602;SDS011;21725;50.836;4.368;2022-08-01T08:17:14;6.15;;;4.03;;
35602;SDS011;21725;50.836;4.368;2022-08-01T08:19:40;11.70;;;3.05;;
35602;SDS011;21725;50.836;4.368;2022-08-01T08:34:24;6.90;;;3.05;;
35602;SDS011;21725;50.836;4.368;2022-08-01T08:36:51;5.00;;;2.83;;
35602;SDS011;21725;50.836;4.368;2022-08-01T08:39:17;6.05;;;3.58;;
35602;SDS011;21725;50.836;4.368;2022-08-01T08:41:43;3.95;;;2.70;;
35602;SDS011;21725;50.836;4.368;2022-08-01T08:44:09;5.88;;;2.58;;
35602;SDS011;21725;50.836;4.368;2022-08-01T08:50:01;5.95;;;2.60;;
35602;SDS011;21725;50.836;4.368;2022-08-01T08:52:41;4.68;;;2.65;;
35602;SDS011;21725;50.836;4.368;2022-08-01T08:58:58;7.18;;;3.13;;
35602;SDS011;21725;50.836;4.368;2022-08-01T09:01:33;3.70;;;2.60;;
35602;SDS011;21725;50.836;4.368;2022-08-01T09:04:21;5.85;;;2.47;;
35602;SDS011;21725;50.836;4.368;2022-08-01T09:07:07;3.85;;;1.90;;
35602;SDS011;21725;50.836;4.368;2022-08-01T09:09:51;4.82;;;2.50;;
35602;SDS011;21725;50.836;4.368;2022-08-01T09:12:17;4.53;;;2.70;;
35602;SDS011;21725;50.836;4.368;2022-08-01T09:14:44;5.28;;;2.15;;
35602;SDS011;21725;50.836;4.368;2022-08-01T09:17:15;3.10;;;2.22;;
35602;SDS011;21725;50.836;4.368;2022-08-01T09:19:42;3.30;;;2.13;;
35602;SDS011;21725;50.836;4.368;2022-08-01T09:28:05;6.07;;;2.67;;
35602;SDS011;21725;50.836;4.368;2022-08-01T09:30:37;5.50;;;3.22;;
35602;SDS011;21725;50.836;4.368;2022-08-01T09:35:59;7.00;;;3.38;;
35602;SDS011;21725;50.836;4.368;2022-08-01T09:38:30;5.93;;;2.70;;
35602;SDS011;21725;50.836;4.368;2022-08-01T09:48:08;3.53;;;2.35;;
35602;SDS011;21725;50.836;4.368;2022-08-01T09:53:59;5.07;;;2.70;;
35602;SDS011;21725;50.836;4.368;2022-08-01T09:56:35;3.33;;;2.20;;
35602;SDS011;21725;50.836;4.368;2022-08-01T09:59:05;4.10;;;2.47;;
35602;SDS011;21725;50.836;4.368;2022-08-01T10:01:41;3.70;;;2.65;;
35602;SDS011;21725;50.836;4.368;2022-08-01T10:38:54;3.35;;;1.85;;
35602;SDS011;21725;50.836;4.368;2022-08-01T10:41:23;2.55;;;1.55;;
35602;SDS011;21725;50.836;4.368;2022-08-01T10:43:49;2.83;;;1.58;;
35602;SDS011;21725;50.836;4.368;2022-08-01T10:46:17;4.03;;;2.15;;
35602;SDS011;21725;50.836;4.368;2022-08-01T10:48:55;4.68;;;3.08;;
35602;SDS011;21725;50.836;4.368;2022-08-01T10:51:25;2.22;;;1.60;;
35602;SDS011;21725;50.836;4.368;2022-08-01T10:53:53;2.03;;;1.48;;
35602;SDS011;21725;50.836;4.368;2022-08-01T10:56:19;4.13;;;1.90;;
35602;SDS011;21725;50.836;4.368;2022-08-01T10:58:47;3.75;;;1.80;;
35602;SDS011;21725;50.836;4.368;2022-08-01T11:06:17;3.88;;;1.90;;
35602;SDS011;21725;50.836;4.368;2022-08-01T11:08:53;3.28;;;1.98;;
35602;SDS011;21725;50.836;4.368;2022-08-01T11:11:20;2.75;;;1.95;;
35602;SDS011;21725;50.836;4.368;2022-08-01T11:14:05;3.20;;;2.05;;
35602;SDS011;21725;50.836;4.368;2022-08-01T11:16:38;4.10;;;1.85;;
35602;SDS011;21725;50.836;4.368;2022-08-01T11:19:06;3.60;;;2.50;;
35602;SDS011;21725;50.836;4.368;2022-08-01T11:39:16;2.50;;;1.50;;
35602;SDS011;21725;50.836;4.368;2022-08-01T11:41:43;1.85;;;1.65;;
35602;SDS011;21725;50.836;4.368;2022-08-01T11:44:11;4.25;;;1.77;;
35602;SDS011;21725;50.836;4.368;2022-08-01T11:46:47;4.20;;;2.13;;
35602;SDS011;21725;50.836;4.368;2022-08-01T11:52:03;3.38;;;1.83;;
35602;SDS011;21725;50.836;4.368;2022-08-01T11:54:37;2.40;;;2.17;;
35602;SDS011;21725;50.836;4.368;2022-08-01T12:00:12;3.78;;;2.22;;
35602;SDS011;21725;50.836;4.368;2022-08-01T12:03:01;3.75;;;1.50;;
35602;SDS011;21725;50.836;4.368;2022-08-01T12:07:57;5.55;;;2.10;;
35602;SDS011;21725;50.836;4.368;2022-08-01T12:10:25;2.90;;;2.00;;
35602;SDS011;21725;50.836;4.368;2022-08-01T12:13:02;4.03;;;1.63;;
35602;SDS011;21725;50.836;4.368;2022-08-01T12:15:30;3.10;;;1.95;;
35602;SDS011;21725;50.836;4.368;2022-08-01T12:17:58;6.07;;;2.35;;
35602;SDS011;21725;50.836;4.368;2022-08-01T12:20:29;6.50;;;1.80;;
35602;SDS011;21725;50.836;4.368;2022-08-01T12:23:00;16.35;;;2.03;;
35602;SDS011;21725;50.836;4.368;2022-08-01T12:25:30;3.20;;;1.63;;
35602;SDS011;21725;50.836;4.368;2022-08-01T12:31:03;5.00;;;2.75;;
35602;SDS011;21725;50.836;4.368;2022-08-01T12:39:31;5.00;;;2.20;;
35602;SDS011;21725;50.836;4.368;2022-08-01T12:42:17;3.20;;;1.80;;
35602;SDS011;21725;50.836;4.368;2022-08-01T12:44:44;6.07;;;2.05;;
35602;SDS011;21725;50.836;4.368;2022-08-01T12:47:12;4.50;;;1.92;;
35602;SDS011;21725;50.836;4.368;2022-08-01T12:49:40;2.85;;;1.70;;
35602;SDS011;21725;50.836;4.368;2022-08-01T12:52:08;3.65;;;1.88;;
35602;SDS011;21725;50.836;4.368;2022-08-01T12:57:24;4.60;;;2.17;;
35602;SDS011;21725;50.836;4.368;2022-08-01T12:59:52;3.05;;;2.03;;
35602;SDS011;21725;50.836;4.368;2022-08-01T13:02:18;3.03;;;1.85;;
35602;SDS011;21725;50.836;4.368;2022-08-01T13:04:50;2.90;;;1.95;;
35602;SDS011;21725;50.836;4.368;2022-08-01T13:07:17;4.03;;;1.80;;
35602;SDS011;21725;50.836;4.368;2022-08-01T13:09:51;3.78;;;2.10;;
35602;SDS011;21725;50.836;4.368;2022-08-01T13:12:17;5.65;;;2.55;;
35602;SDS011;21725;50.836;4.368;2022-08-01T13:14:45;3.45;;;1.80;;
35602;SDS011;21725;50.836;4.368;2022-08-01T13:17:11;3.05;;;2.00;;
35602;SDS011;21725;50.836;4.368;2022-08-01T13:19:55;3.97;;;2.05;;
35602;SDS011;21725;50.836;4.368;2022-08-01T13:22:20;2.58;;;1.80;;
35602;SDS011;21725;50.836;4.368;2022-08-01T13:31:22;5.13;;;1.77;;
35602;SDS011;21725;50.836;4.368;2022-08-01T13:34:07;4.90;;;2.00;;
35602;SDS011;21725;50.836;4.368;2022-08-01T13:39:57;3.35;;;1.48;;
35602;SDS011;21725;50.836;4.368;2022-08-01T13:42:22;2.47;;;1.98;;
35602;SDS011;21725;50.836;4.368;2022-08-01T13:44:48;6.10;;;2.55;;
35602;SDS011;21725;50.836;4.368;2022-08-01T13:47:14;6.78;;;4.18;;
35602;SDS011;21725;50.836;4.368;2022-08-01T13:49:39;3.22;;;1.90;;
35602;SDS011;21725;50.836;4.368;2022-08-01T13:55:12;2.38;;;1.65;;
35602;SDS011;21725;50.836;4.368;2022-08-01T13:57:38;3.38;;;1.95;;
35602;SDS011;21725;50.836;4.368;2022-08-01T14:00:04;5.55;;;1.90;;
35602;SDS011;21725;50.836;4.368;2022-08-01T14:02:37;6.10;;;2.30;;
35602;SDS011;21725;50.836;4.368;2022-08-01T14:05:03;3.45;;;2.15;;
35602;SDS011;21725;50.836;4.368;2022-08-01T14:07:29;4.18;;;2.22;;
35602;SDS011;21725;50.836;4.368;2022-08-01T14:10:01;4.28;;;1.83;;
35602;SDS011;21725;50.836;4.368;2022-08-01T14:12:39;6.03;;;2.67;;
35602;SDS011;21725;50.836;4.368;2022-08-01T14:15:07;3.55;;;1.70;;
35602;SDS011;21725;50.836;4.368;2022-08-01T14:26:30;3.67;;;2.08;;
35602;SDS011;21725;50.836;4.368;2022-08-01T14:28:56;2.65;;;1.85;;
35602;SDS011;21725;50.836;4.368;2022-08-01T14:31:35;4.10;;;1.95;;
35602;SDS011;21725;50.836;4.368;2022-08-01T14:34:00;6.13;;;2.00;;
35602;SDS011;21725;50.836;4.368;2022-08-01T14:36:26;3.13;;;1.63;;
35602;SDS011;21725;50.836;4.368;2022-08-01T14:38:52;4.32;;;2.20;;
35602;SDS011;21725;50.836;4.368;2022-08-01T14:41:36;3.72;;;2.08;;
35602;SDS011;21725;50.836;4.368;2022-08-01T14:51:05;2.90;;;1.55;;
35602;SDS011;21725;50.836;4.368;2022-08-01T14:56:22;2.63;;;1.60;;
35602;SDS011;21725;50.836;4.368;2022-08-01T15:01:39;6.15;;;1.98;;
35602;SDS011;21725;50.836;4.368;2022-08-01T15:04:05;5.47;;;3.30;;
35602;SDS011;21725;50.836;4.368;2022-08-01T15:09:37;3.20;;;1.73;;
35602;SDS011;21725;50.836;4.368;2022-08-01T15:12:03;3.78;;;1.50;;
35602;SDS011;21725;50.836;4.368;2022-08-01T15:14:32;3.22;;;2.00;;
35602;SDS011;21725;50.836;4.368;2022-08-01T15:17:20;4.05;;;1.80;;
35602;SDS011;21725;50.836;4.368;2022-08-01T15:20:02;7.22;;;1.52;;
35602;SDS011;21725;50.836;4.368;2022-08-01T15:22:32;3.08;;;2.00;;
35602;SDS011;21725;50.836;4.368;2022-08-01T15:25:02;4.72;;;1.67;;
35602;SDS011;21725;50.836;4.368;2022-08-01T15:27:28;5.47;;;2.13;;
35602;SDS011;21725;50.836;4.368;2022-08-01T15:29:54;2.28;;;1.38;;
35602;SDS011;21725;50.836;4.368;2022-08-01T15:32:21;3.30;;;1.83;;
35602;SDS011;21725;50.836;4.368;2022-08-01T15:34:59;4.63;;;2.42;;
35602;SDS011;21725;50.836;4.368;2022-08-01T15:37:31;3.08;;;1.83;;
35602;SDS011;21725;50.836;4.368;2022-08-01T15:39:57;8.45;;;3.00;;
35602;SDS011;21725;50.836;4.368;2022-08-01T15:42:22;2.92;;;1.52;;
35602;SDS011;21725;50.836;4.368;2022-08-01T15:44:48;3.15;;;1.80;;
35602;SDS011;21725;50.836;4.368;2022-08-01T15:47:14;3.78;;;1.70;;
35602;SDS011;21725;50.836;4.368;2022-08-01T15:49:41;2.53;;;1.70;;
35602;SDS011;21725;50.836;4.368;2022-08-01T15:52:07;5.85;;;1.98;;
35602;SDS011;21725;50.836;4.368;2022-08-01T15:54:56;2.88;;;1.70;;
35602;SDS011;21725;50.836;4.368;2022-08-01T16:28:14;3.25;;;1.55;;
35602;SDS011;21725;50.836;4.368;2022-08-01T16:57:42;4.22;;;1.70;;
35602;SDS011;21725;50.836;4.368;2022-08-01T17:00:08;4.13;;;1.73;;
35602;SDS011;21725;50.836;4.368;2022-08-01T17:03:01;4.38;;;1.90;;
35602;SDS011;21725;50.836;4.368;2022-08-01T17:05:29;4.13;;;2.03;;
35602;SDS011;21725;50.836;4.368;2022-08-01T17:07:55;4.82;;;1.65;;
35602;SDS011;21725;50.836;4.368;2022-08-01T17:10:24;2.90;;;1.80;;
35602;SDS011;21725;50.836;4.368;2022-08-01T17:13:02;2.47;;;1.50;;
35602;SDS011;21725;50.836;4.368;2022-08-01T17:18:05;2.25;;;1.40;;
35602;SDS011;21725;50.836;4.368;2022-08-01T17:20:31;4.95;;;1.67;;
35602;SDS011;21725;50.836;4.368;2022-08-01T17:22:57;3.67;;;1.95;;
35602;SDS011;21725;50.836;4.368;2022-08-01T17:25:25;4.05;;;2.10;;
35602;SDS011;21725;50.836;4.368;2022-08-01T17:36:23;5.10;;;1.50;;
35602;SDS011;21725;50.836;4.368;2022-08-01T17:49:10;2.75;;;1.80;;
35602;SDS011;21725;50.836;4.368;2022-08-01T17:51:41;3.55;;;1.77;;
35602;SDS011;21725;50.836;4.368;2022-08-01T17:54:49;4.15;;;1.92;;
35602;SDS011;21725;50.836;4.368;2022-08-01T17:57:35;2.08;;;1.52;;
35602;SDS011;21725;50.836;4.368;2022-08-01T18:00:09;5.90;;;2.30;;
35602;SDS011;21725;50.836;4.368;2022-08-01T18:17:31;6.65;;;2.05;;
35602;SDS011;21725;50.836;4.368;2022-08-01T18:19:56;2.80;;;1.50;;
35602;SDS011;21725;50.836;4.368;2022-08-01T18:28:58;4.13;;;1.90;;
35602;SDS011;21725;50.836;4.368;2022-08-01T18:31:23;4.45;;;1.85;;
35602;SDS011;21725;50.836;4.368;2022-08-01T18:33:58;5.82;;;1.85;;
35602;SDS011;21725;50.836;4.368;2022-08-01T18:36:26;3.10;;;1.55;;
35602;SDS011;21725;50.836;4.368;2022-08-01T18:39:00;7.70;;;2.25;;
35602;SDS011;21725;50.836;4.368;2022-08-01T18:41:51;6.47;;;1.58;;
35602;SDS011;21725;50.836;4.368;2022-08-01T18:44:19;3.40;;;1.60;;
35602;SDS011;21725;50.836;4.368;2022-08-01T18:46:48;3.63;;;1.90;;
35602;SDS011;21725;50.836;4.368;2022-08-01T18:55:21;4.78;;;1.50;;
35602;SDS011;21725;50.836;4.368;2022-08-01T18:57:55;2.08;;;1.52;;
35602;SDS011;21725;50.836;4.368;2022-08-01T19:00:23;3.80;;;1.80;;
35602;SDS011;21725;50.836;4.368;2022-08-01T19:03:15;4.72;;;1.65;;
35602;SDS011;21725;50.836;4.368;2022-08-01T19:05:51;3.63;;;1.92;;
35602;SDS011;21725;50.836;4.368;2022-08-01T19:08:17;4.03;;;1.57;;
35602;SDS011;21725;50.836;4.368;2022-08-01T19:10:50;1.88;;;1.50;;
35602;SDS011;21725;50.836;4.368;2022-08-01T19:13:16;4.38;;;1.65;;
35602;SDS011;21725;50.836;4.368;2022-08-01T19:15:52;2.63;;;1.70;;
35602;SDS011;21725;50.836;4.368;2022-08-01T19:18:20;3.25;;;1.52;;
35602;SDS011;21725;50.836;4.368;2022-08-01T19:20:57;3.28;;;1.60;;
35602;SDS011;21725;50.836;4.368;2022-08-01T19:23:33;6.45;;;2.33;;
35602;SDS011;21725;50.836;4.368;2022-08-01T19:26:34;2.25;;;1.30;;
35602;SDS011;21725;50.836;4.368;2022-08-01T19:29:14;3.25;;;1.83;;
35602;SDS011;21725;50.836;4.368;2022-08-01T19:31:46;4.20;;;2.10;;
35602;SDS011;21725;50.836;4.368;2022-08-01T19:34:17;4.97;;;1.60;;
35602;SDS011;21725;50.836;4.368;2022-08-01T19:36:51;4.22;;;1.75;;
35602;SDS011;21725;50.836;4.368;2022-08-01T19:39:31;3.80;;;1.60;;
35602;SDS011;21725;50.836;4.368;2022-08-01T19:42:08;6.53;;;1.80;;
35602;SDS011;21725;50.836;4.368;2022-08-01T19:44:49;7.13;;;2.58;;
35602;SDS011;21725;50.836;4.368;2022-08-01T19:47:29;3.78;;;1.88;;
35602;SDS011;21725;50.836;4.368;2022-08-01T19:50:01;3.03;;;1.65;;
35602;SDS011;21725;50.836;4.368;2022-08-01T19:52:31;5.50;;;2.47;;
35602;SDS011;21725;50.836;4.368;2022-08-01T19:55:02;2.92;;;1.95;;
35602;SDS011;21725;50.836;4.368;2022-08-01T19:57:29;3.97;;;2.53;;
35602;SDS011;21725;50.836;4.368;2022-08-01T19:59:57;5.80;;;1.85;;
35602;SDS011;21725;50.836;4.368;2022-08-01T20:02:25;3.20;;;1.70;;
35602;SDS011;21725;50.836;4.368;2022-08-01T20:04:56;5.43;;;2.20;;
35602;SDS011;21725;50.836;4.368;2022-08-01T20:09:49;5.72;;;2.00;;
35602;SDS011;21725;50.836;4.368;2022-08-01T20:12:16;5.68;;;2.10;;
35602;SDS011;21725;50.836;4.368;2022-08-01T20:14:45;3.83;;;1.85;;
35602;SDS011;21725;50.836;4.368;2022-08-01T20:17:23;5.35;;;2.60;;
35602;SDS011;21725;50.836;4.368;2022-08-01T20:19:48;4.10;;;2.25;;
35602;SDS011;21725;50.836;4.368;2022-08-01T20:22:23;5.80;;;2.53;;
35602;SDS011;21725;50.836;4.368;2022-08-01T20:24:53;5.88;;;2.83;;
35602;SDS011;21725;50.836;4.368;2022-08-01T20:29:48;5.00;;;2.38;;
35602;SDS011;21725;50.836;4.368;2022-08-01T20:32:22;5.53;;;2.30;;
35602;SDS011;21725;50.836;4.368;2022-08-01T20:34:57;5.97;;;2.13;;
35602;SDS011;21725;50.836;4.368;2022-08-01T20:37:46;5.18;;;2.20;;
35602;SDS011;21725;50.836;4.368;2022-08-01T20:40:12;4.75;;;2.30;;
35602;SDS011;21725;50.836;4.368;2022-08-01T20:42:41;4.97;;;2.50;;
35602;SDS011;21725;50.836;4.368;2022-08-01T20:45:11;22.92;;;3.67;;
35602;SDS011;21725;50.836;4.368;2022-08-01T20:47:38;6.43;;;2.33;;
35602;SDS011;21725;50.836;4.368;2022-08-01T20:50:04;6.65;;;2.50;;
35602;SDS011;21725;50.836;4.368;2022-08-01T20:52:51;4.68;;;2.33;;
35602;SDS011;21725;50.836;4.368;2022-08-01T20:55:16;9.37;;;2.80;;
35602;SDS011;21725;50.836;4.368;2022-08-01T20:57:46;4.47;;;1.95;;
35602;SDS011;21725;50.836;4.368;2022-08-01T21:00:18;7.70;;;3.38;;
35602;SDS011;21725;50.836;4.368;2022-08-01T21:02:55;10.23;;;2.60;;
35602;SDS011;21725;50.836;4.368;2022-08-01T21:05:41;4.10;;;2.53;;
35602;SDS011;21725;50.836;4.368;2022-08-01T21:08:13;5.05;;;2.20;;
35602;SDS011;21725;50.836;4.368;2022-08-01T21:11:01;4.25;;;2.20;;
35602;SDS011;21725;50.836;4.368;2022-08-01T21:13:36;6.57;;;2.65;;